Arbutus, Maryland
Current Conditions -  °F | °C
As of 6:54 AM on Wednesday 28 Jan 2015 (Local Time) from KBWI Reporting Station
Few Clouds Few Clouds  
Wind Chill: 10°   Ceiling: Unl
Heat Index: 20°   Visibility: 10mi
Dew Point:   Wind: 8mph
Humidity: 52%   Direction: 290°WNW
Pressure: 30.13"   Gusts: NA
Location:  39.2187°N, 76.722°W
Report Text: KBWI 281154Z 29007KT 10SM FEW250 M07/M15 A3013 RMK AO2 SLP204 T10671150 11033 21072 52025
Loading
Personal Weather Stations






























Interactive Weather Map New forecast layout! Learn more

10-Day Weather Forecast

Advertisements
Track Severe Weather on mobile